createdAt,value
2017-08-20T00:00:16.468Z,933.6
2017-08-20T00:00:44.980Z,933.54
2017-08-20T00:01:13.007Z,933.57
2017-08-20T00:01:40.985Z,933.55
2017-08-20T00:02:09.006Z,933.54
2017-08-20T00:02:37.664Z,933.56
2017-08-20T00:03:05.622Z,933.56
2017-08-20T00:03:33.764Z,933.52
2017-08-20T00:04:01.930Z,933.49
2017-08-20T00:04:29.858Z,933.47
2017-08-20T00:04:57.916Z,933.47
2017-08-20T00:05:25.984Z,933.51
2017-08-20T00:05:54.337Z,933.46
2017-08-20T00:06:22.267Z,933.44
2017-08-20T00:06:50.458Z,933.4
2017-08-20T00:07:18.577Z,933.37
2017-08-20T00:07:46.610Z,933.4
2017-08-20T00:08:14.724Z,933.39
2017-08-20T00:08:42.814Z,933.49
2017-08-20T00:09:10.855Z,933.42
2017-08-20T00:09:38.933Z,933.42
2017-08-20T00:10:07.154Z,933.4
2017-08-20T00:10:35.292Z,933.43
2017-08-20T00:11:03.357Z,933.45
2017-08-20T00:11:31.506Z,933.43
2017-08-20T00:11:59.492Z,933.43
2017-08-20T00:12:27.614Z,933.46
2017-08-20T00:12:55.728Z,933.4
2017-08-20T00:13:24.106Z,933.44
2017-08-20T00:13:52.103Z,933.46
2017-08-20T00:14:20.472Z,933.5
2017-08-20T00:14:48.445Z,933.44
2017-08-20T00:15:16.567Z,933.44
2017-08-20T00:15:44.598Z,933.42
2017-08-20T00:16:12.619Z,933.43
2017-08-20T00:16:40.659Z,933.41
2017-08-20T00:17:08.833Z,933.43
2017-08-20T00:17:36.789Z,933.4
2017-08-20T00:18:04.903Z,933.44
2017-08-20T00:18:32.888Z,933.42
2017-08-20T00:19:01.001Z,933.42
2017-08-20T00:19:29.034Z,933.43
2017-08-20T00:19:57.132Z,933.43
2017-08-20T00:20:25.090Z,933.41
2017-08-20T00:20:53.132Z,933.4
2017-08-20T00:21:21.174Z,933.42
2017-08-20T00:21:49.031Z,933.5
2017-08-20T00:22:17.148Z,933.4
2017-08-20T00:22:45.137Z,933.49
2017-08-20T00:23:13.211Z,933.44
2017-08-20T00:23:41.255Z,933.48
2017-08-20T00:24:09.392Z,933.43
2017-08-20T00:24:37.419Z,933.46
2017-08-20T00:25:05.557Z,933.42
2017-08-20T00:25:34.266Z,933.42
2017-08-20T00:26:02.361Z,933.38
2017-08-20T00:26:30.332Z,933.39
2017-08-20T00:26:58.377Z,933.42
2017-08-20T00:27:26.344Z,933.39
2017-08-20T00:27:54.444Z,933.37
2017-08-20T00:28:22.561Z,933.36
2017-08-20T00:28:50.607Z,933.33
2017-08-20T00:29:18.942Z,933.37
2017-08-20T00:29:47.067Z,933.38
2017-08-20T00:30:15.178Z,933.39
2017-08-20T00:30:43.066Z,933.34
2017-08-20T00:31:11.103Z,933.41
2017-08-20T00:31:39.182Z,933.36
2017-08-20T00:32:07.146Z,933.36
2017-08-20T00:32:35.206Z,933.39
2017-08-20T00:33:03.162Z,933.35
2017-08-20T00:33:31.350Z,933.4
2017-08-20T00:33:59.380Z,933.35
2017-08-20T00:34:27.519Z,933.37
2017-08-20T00:34:55.572Z,933.41
2017-08-20T00:35:23.919Z,933.42
2017-08-20T00:35:52.099Z,933.43
2017-08-20T00:36:20.159Z,933.45
2017-08-20T00:36:48.338Z,933.41
2017-08-20T00:37:16.502Z,933.41
2017-08-20T00:37:44.531Z,933.39
2017-08-20T00:38:12.457Z,933.37
2017-08-20T00:38:40.701Z,933.39
2017-08-20T00:39:08.858Z,933.39
2017-08-20T00:39:37.161Z,933.41
2017-08-20T00:40:05.349Z,933.42
2017-08-20T00:40:33.417Z,933.42
2017-08-20T00:41:01.755Z,933.43
2017-08-20T00:41:29.909Z,933.38
2017-08-20T00:41:58.071Z,933.43
2017-08-20T00:42:26.332Z,933.41
2017-08-20T00:42:54.282Z,933.43
2017-08-20T00:43:22.426Z,933.38
2017-08-20T00:43:50.425Z,933.39
2017-08-20T00:44:20.285Z,933.35
2017-08-20T00:44:48.409Z,933.35
2017-08-20T00:45:16.743Z,933.35
2017-08-20T00:45:44.943Z,933.35
2017-08-20T00:46:13.185Z,933.35
2017-08-20T00:46:41.228Z,933.35
2017-08-20T00:47:10.260Z,933.34
2017-08-20T00:47:38.587Z,933.35
2017-08-20T00:48:06.729Z,933.35
2017-08-20T00:48:35.139Z,933.35
2017-08-20T00:49:03.221Z,933.34
2017-08-20T00:49:31.264Z,933.34
2017-08-20T00:49:59.375Z,933.32
2017-08-20T00:50:43.061Z,933.38
2017-08-20T00:51:13.859Z,933.37
2017-08-20T00:51:43.945Z,933.38
2017-08-20T00:52:27.310Z,933.35
2017-08-20T00:52:57.176Z,933.39
2017-08-20T00:53:26.888Z,933.41
2017-08-20T00:53:56.571Z,933.34
2017-08-20T00:54:39.540Z,933.36
2017-08-20T00:55:23.625Z,933.32
2017-08-20T00:56:08.946Z,933.3
2017-08-20T00:56:57.038Z,933.29
2017-08-20T00:57:43.253Z,933.27
2017-08-20T00:58:14.781Z,933.27
2017-08-20T00:58:57.742Z,933.28
2017-08-20T00:59:27.903Z,933.33
2017-08-20T00:59:56.766Z,933.25
2017-08-20T01:00:41.023Z,933.24
2017-08-20T01:01:11.943Z,933.23
2017-08-20T01:01:43.107Z,933.23
2017-08-20T01:02:12.120Z,933.26
2017-08-20T01:02:42.213Z,933.25
2017-08-20T01:03:27.510Z,933.22
2017-08-20T01:04:11.775Z,933.28
2017-08-20T01:04:41.761Z,933.25
2017-08-20T01:05:24.959Z,933.3
2017-08-20T01:05:54.469Z,933.28
2017-08-20T01:06:25.753Z,933.27
2017-08-20T01:06:55.262Z,933.3
2017-08-20T01:07:37.926Z,933.33
2017-08-20T01:08:21.582Z,933.28
2017-08-20T01:09:06.353Z,933.28
2017-08-20T01:09:35.666Z,933.34
2017-08-20T01:10:18.786Z,933.34
2017-08-20T01:11:02.162Z,933.31
2017-08-20T01:11:31.496Z,933.32
2017-08-20T01:12:01.506Z,933.33
2017-08-20T01:12:47.366Z,933.35
2017-08-20T01:13:15.956Z,933.31
2017-08-20T01:13:46.249Z,933.35
2017-08-20T01:14:30.745Z,933.32
2017-08-20T01:15:01.106Z,933.29
2017-08-20T01:15:30.232Z,933.28
2017-08-20T01:17:12.163Z,933.24
2017-08-20T01:18:10.692Z,933.26
2017-08-20T01:18:54.702Z,933.2
2017-08-20T01:19:22.960Z,933.2
2017-08-20T01:19:51.088Z,933.19
2017-08-20T01:20:19.021Z,933.13
2017-08-20T01:20:47.178Z,933.12
2017-08-20T01:21:15.373Z,933.11
2017-08-20T01:21:43.536Z,933.12
2017-08-20T01:22:12.963Z,933.11
2017-08-20T01:22:41.411Z,933.07
2017-08-20T01:23:10.033Z,933.08
2017-08-20T01:23:53.188Z,933.07
2017-08-20T01:24:21.350Z,933.02
2017-08-20T01:24:49.380Z,933.04
2017-08-20T01:25:17.500Z,933.01
2017-08-20T01:25:45.453Z,933.07
2017-08-20T01:26:13.569Z,933.06
2017-08-20T01:26:41.732Z,933.07
2017-08-20T01:27:09.896Z,933.06
2017-08-20T01:27:37.968Z,933.09
2017-08-20T01:28:06.361Z,933.08
2017-08-20T01:28:34.360Z,933.05
2017-08-20T01:29:02.487Z,933.07
2017-08-20T01:29:30.506Z,933.02
2017-08-20T01:29:58.631Z,933.06
2017-08-20T01:30:26.874Z,933.05
2017-08-20T01:30:55.032Z,933.03
2017-08-20T01:31:23.086Z,933.01
2017-08-20T01:31:51.219Z,933.01
2017-08-20T01:32:19.430Z,933.03
2017-08-20T01:32:47.453Z,932.99
2017-08-20T01:33:15.487Z,932.99
2017-08-20T01:33:43.435Z,933.03
2017-08-20T01:34:11.795Z,933.05
2017-08-20T01:34:39.890Z,932.99
2017-08-20T01:35:08.000Z,933.02
2017-08-20T01:35:36.267Z,932.99
2017-08-20T01:36:04.521Z,932.99
2017-08-20T01:36:32.523Z,932.95
2017-08-20T01:37:00.762Z,932.97
2017-08-20T01:37:28.879Z,932.95
2017-08-20T01:37:57.082Z,932.95
2017-08-20T01:38:25.107Z,932.95
2017-08-20T01:38:53.680Z,932.96
2017-08-20T01:39:21.905Z,932.93
2017-08-20T01:39:49.940Z,932.99
2017-08-20T01:40:17.991Z,932.98
2017-08-20T01:40:46.140Z,932.99
2017-08-20T01:41:14.678Z,933.01
2017-08-20T01:41:42.881Z,932.98
2017-08-20T01:42:10.937Z,933.01
2017-08-20T01:42:39.412Z,932.98
2017-08-20T01:43:07.807Z,932.99
2017-08-20T01:43:35.847Z,933
2017-08-20T01:44:04.329Z,932.97
2017-08-20T01:44:32.393Z,932.98
2017-08-20T01:45:00.572Z,933
2017-08-20T01:45:28.677Z,933.01
2017-08-20T01:45:57.124Z,933.03
2017-08-20T01:46:25.262Z,933.01
2017-08-20T01:46:53.261Z,933.02
2017-08-20T01:47:21.310Z,933.06
2017-08-20T01:47:49.259Z,933.06
2017-08-20T01:48:17.358Z,933.02
2017-08-20T01:48:45.487Z,933.06
2017-08-20T01:49:13.821Z,933.05
2017-08-20T01:49:41.747Z,933.06
2017-08-20T01:50:09.807Z,933.08
2017-08-20T01:50:37.954Z,933.05
2017-08-20T01:51:06.071Z,933.03
2017-08-20T01:51:34.128Z,933.02
2017-08-20T01:52:02.343Z,933.05
2017-08-20T01:52:30.598Z,933.04
2017-08-20T01:52:58.610Z,933.03
2017-08-20T01:53:26.767Z,933.05
2017-08-20T01:53:54.846Z,933.05
2017-08-20T01:54:23.002Z,933.05
2017-08-20T01:54:51.215Z,933.06
2017-08-20T01:55:19.234Z,933.08
2017-08-20T01:55:47.307Z,933.08
2017-08-20T01:56:15.445Z,933.08
2017-08-20T01:56:43.583Z,933.08
2017-08-20T01:57:11.832Z,933.1
2017-08-20T01:57:40.185Z,933.1
2017-08-20T01:58:08.114Z,933.1
2017-08-20T01:58:36.233Z,933.1
2017-08-20T01:59:04.789Z,933.1
2017-08-20T01:59:32.728Z,933.1
2017-08-20T02:00:00.986Z,933.09
2017-08-20T02:00:29.351Z,933.07
2017-08-20T02:00:57.636Z,933.08
2017-08-20T02:01:26.082Z,933.06
2017-08-20T02:01:54.230Z,933.07
2017-08-20T02:02:22.233Z,933.07
2017-08-20T02:02:50.279Z,933.04
2017-08-20T02:03:18.344Z,933.05
2017-08-20T02:03:46.497Z,933.08
2017-08-20T02:04:14.875Z,933.09
2017-08-20T02:04:43.060Z,933.05
2017-08-20T02:05:11.163Z,933.08
2017-08-20T02:05:39.263Z,933.08
2017-08-20T02:06:07.380Z,933.09
2017-08-20T02:06:35.668Z,933.06
2017-08-20T02:07:03.789Z,933.1
2017-08-20T02:07:31.765Z,933.06
2017-08-20T02:07:59.717Z,933.07
2017-08-20T02:08:27.845Z,933.07
2017-08-20T02:08:55.978Z,933.08
2017-08-20T02:09:23.977Z,933.04
2017-08-20T02:09:52.144Z,933.09
2017-08-20T02:10:20.308Z,933.05
2017-08-20T02:10:48.429Z,933.07
2017-08-20T02:11:16.621Z,933.04
2017-08-20T02:11:44.808Z,933.05
2017-08-20T02:12:12.971Z,933.04
2017-08-20T02:12:41.203Z,933.04
2017-08-20T02:13:09.568Z,933.07
2017-08-20T02:13:37.582Z,933.06
2017-08-20T02:14:05.834Z,933.04
2017-08-20T02:14:34.015Z,933.09
2017-08-20T02:15:02.141Z,933.04
2017-08-20T02:15:30.069Z,933.07
2017-08-20T02:15:58.235Z,933.04
2017-08-20T02:16:26.376Z,933
2017-08-20T02:16:54.443Z,932.95
2017-08-20T02:17:22.498Z,932.98
2017-08-20T02:17:50.642Z,932.98
2017-08-20T02:18:18.785Z,932.92
2017-08-20T02:18:46.832Z,932.96
2017-08-20T02:19:14.891Z,932.95
2017-08-20T02:19:43.040Z,932.97
2017-08-20T02:20:11.172Z,932.96
2017-08-20T02:20:39.286Z,932.93
2017-08-20T02:21:07.318Z,932.94
2017-08-20T02:21:35.464Z,932.89
2017-08-20T02:22:03.500Z,932.83
2017-08-20T02:22:31.457Z,932.81
2017-08-20T02:22:59.523Z,932.8
2017-08-20T02:23:27.658Z,932.75
2017-08-20T02:23:55.799Z,932.77
2017-08-20T02:24:23.873Z,932.74
2017-08-20T02:24:52.134Z,932.69
2017-08-20T02:25:20.178Z,932.66
2017-08-20T02:25:48.210Z,932.67
2017-08-20T02:26:16.325Z,932.64
2017-08-20T02:26:44.456Z,932.63
2017-08-20T02:27:12.456Z,932.67
2017-08-20T02:27:40.591Z,932.59
2017-08-20T02:28:08.651Z,932.65
2017-08-20T02:28:36.666Z,932.61
2017-08-20T02:29:04.568Z,932.57
2017-08-20T02:29:32.593Z,932.62
2017-08-20T02:30:00.654Z,932.65
2017-08-20T02:30:28.842Z,932.63
2017-08-20T02:30:56.997Z,932.61
2017-08-20T02:31:25.058Z,932.65
2017-08-20T02:31:53.118Z,932.6
2017-08-20T02:32:21.255Z,932.64
2017-08-20T02:32:49.270Z,932.67
2017-08-20T02:33:17.291Z,932.66
2017-08-20T02:33:45.433Z,932.65
2017-08-20T02:34:13.547Z,932.65
2017-08-20T02:34:41.697Z,932.68
2017-08-20T02:35:09.843Z,932.69
2017-08-20T02:35:37.795Z,932.68
2017-08-20T02:36:05.946Z,932.71
2017-08-20T02:36:34.088Z,932.68
2017-08-20T02:37:02.176Z,932.68
2017-08-20T02:37:30.116Z,932.66
2017-08-20T02:37:58.269Z,932.68
2017-08-20T02:38:26.267Z,932.71
2017-08-20T02:38:54.422Z,932.73
2017-08-20T02:39:22.560Z,932.76
2017-08-20T02:39:50.700Z,932.74
2017-08-20T02:40:18.759Z,932.72
2017-08-20T02:40:47.023Z,932.74
2017-08-20T02:41:15.196Z,932.71
2017-08-20T02:41:43.128Z,932.75
2017-08-20T02:42:11.221Z,932.72
2017-08-20T02:42:39.357Z,932.68
2017-08-20T02:43:07.464Z,932.71
2017-08-20T02:43:35.624Z,932.66
2017-08-20T02:44:03.732Z,932.64
2017-08-20T02:44:31.677Z,932.67
2017-08-20T02:44:59.742Z,932.63
2017-08-20T02:45:27.858Z,932.63
2017-08-20T02:45:56.086Z,932.6
2017-08-20T02:46:24.128Z,932.58
2017-08-20T02:46:52.065Z,932.56
2017-08-20T02:47:20.067Z,932.5
2017-08-20T02:47:48.153Z,932.49
2017-08-20T02:48:16.502Z,932.46
2017-08-20T02:48:44.548Z,932.45
2017-08-20T02:49:12.700Z,932.44
2017-08-20T02:49:40.826Z,932.42
2017-08-20T02:50:08.866Z,932.46
2017-08-20T02:50:37.122Z,932.41
2017-08-20T02:51:05.322Z,932.44
2017-08-20T02:51:33.532Z,932.5
2017-08-20T02:52:01.546Z,932.48
2017-08-20T02:52:29.895Z,932.5
2017-08-20T02:52:58.215Z,932.48
2017-08-20T02:53:26.346Z,932.48
2017-08-20T02:53:54.381Z,932.49
2017-08-20T02:54:22.502Z,932.49
2017-08-20T02:54:50.517Z,932.48
2017-08-20T02:55:18.871Z,932.46
2017-08-20T02:55:46.885Z,932.41
2017-08-20T02:56:15.113Z,932.45
2017-08-20T02:56:43.217Z,932.46
2017-08-20T02:57:11.350Z,932.43
2017-08-20T02:57:39.515Z,932.39
2017-08-20T02:58:07.547Z,932.42
2017-08-20T02:58:35.764Z,932.4
2017-08-20T02:59:03.839Z,932.35
2017-08-20T02:59:31.891Z,932.36
2017-08-20T03:00:00.027Z,932.33
2017-08-20T03:00:28.153Z,932.35
2017-08-20T03:00:56.161Z,932.29
2017-08-20T03:01:24.255Z,932.28
2017-08-20T03:01:52.456Z,932.28
2017-08-20T03:02:20.765Z,932.29
2017-08-20T03:02:48.953Z,932.29
2017-08-20T03:03:17.559Z,932.27
2017-08-20T03:03:45.676Z,932.26
2017-08-20T03:04:14.244Z,932.25
2017-08-20T03:04:42.932Z,932.31
2017-08-20T03:05:11.341Z,932.23
2017-08-20T03:05:39.838Z,932.29
2017-08-20T03:06:08.381Z,932.3
2017-08-20T03:06:36.993Z,932.23
2017-08-20T03:07:05.255Z,932.22
2017-08-20T03:07:33.543Z,932.25
2017-08-20T03:08:02.062Z,932.21
2017-08-20T03:08:30.001Z,932.21
2017-08-20T03:08:57.967Z,932.22
2017-08-20T03:09:26.081Z,932.22
2017-08-20T03:09:54.224Z,932.25
2017-08-20T03:10:22.370Z,932.24
2017-08-20T03:10:50.465Z,932.27
2017-08-20T03:11:18.680Z,932.22
2017-08-20T03:11:46.714Z,932.24
2017-08-20T03:12:15.048Z,932.21
2017-08-20T03:12:43.596Z,932.17
2017-08-20T03:13:11.766Z,932.15
2017-08-20T03:13:40.035Z,932.15
2017-08-20T03:14:08.095Z,932.18
2017-08-20T03:14:36.242Z,932.15
2017-08-20T03:15:04.585Z,932.14
2017-08-20T03:15:32.751Z,932.12
2017-08-20T03:16:00.993Z,932.13
2017-08-20T03:16:29.401Z,932.11
2017-08-20T03:16:57.963Z,932.1
2017-08-20T03:17:26.091Z,932.11
2017-08-20T03:17:54.418Z,932.12
2017-08-20T03:18:23.254Z,932.08
2017-08-20T03:18:51.425Z,932.07
2017-08-20T03:19:19.635Z,932.05
2017-08-20T03:19:47.758Z,932.03
2017-08-20T03:20:15.711Z,932.01
2017-08-20T03:20:43.982Z,931.96
2017-08-20T03:21:12.031Z,932
2017-08-20T03:21:40.142Z,931.93
2017-08-20T03:22:08.679Z,931.93
2017-08-20T03:22:37.080Z,931.92
2017-08-20T03:23:05.430Z,931.88
2017-08-20T03:23:33.833Z,931.86
2017-08-20T03:24:01.931Z,931.84
2017-08-20T03:24:30.064Z,931.87
2017-08-20T03:24:58.202Z,931.82
2017-08-20T03:25:26.262Z,931.82
2017-08-20T03:25:54.191Z,931.9
2017-08-20T03:26:22.255Z,931.8
2017-08-20T03:26:50.606Z,931.8
2017-08-20T03:27:18.729Z,931.8
2017-08-20T03:27:46.851Z,931.82
2017-08-20T03:28:15.014Z,931.83
2017-08-20T03:28:43.093Z,931.81
2017-08-20T03:29:11.161Z,931.8
2017-08-20T03:29:39.274Z,931.77
2017-08-20T03:30:07.416Z,931.82
2017-08-20T03:30:35.528Z,931.78
2017-08-20T03:31:03.560Z,931.75
2017-08-20T03:31:31.979Z,931.8
2017-08-20T03:32:00.531Z,931.74
2017-08-20T03:32:28.845Z,931.73
2017-08-20T03:32:57.087Z,931.74
2017-08-20T03:33:25.275Z,931.72
2017-08-20T03:33:53.869Z,931.74
2017-08-20T03:34:22.351Z,931.75
2017-08-20T03:34:51.008Z,931.74
2017-08-20T03:35:19.126Z,931.76
2017-08-20T03:35:47.614Z,931.75
2017-08-20T03:36:15.857Z,931.77
2017-08-20T03:36:43.837Z,931.72
2017-08-20T03:37:12.264Z,931.74
2017-08-20T03:37:40.586Z,931.71
2017-08-20T03:38:08.719Z,931.63
2017-08-20T03:38:36.929Z,931.67
2017-08-20T03:39:05.229Z,931.69
2017-08-20T03:39:33.356Z,931.63
2017-08-20T03:40:01.425Z,931.66
2017-08-20T03:40:29.557Z,931.64
2017-08-20T03:40:57.765Z,931.58
2017-08-20T03:41:26.175Z,931.64
2017-08-20T03:41:54.177Z,931.63
2017-08-20T03:42:22.095Z,931.61
2017-08-20T03:42:50.224Z,931.62
2017-08-20T03:43:18.614Z,931.64
2017-08-20T03:43:46.747Z,931.63
2017-08-20T03:44:14.977Z,931.6
2017-08-20T03:44:43.060Z,931.6
2017-08-20T03:45:11.197Z,931.58
2017-08-20T03:45:39.349Z,931.59
2017-08-20T03:46:07.590Z,931.59
2017-08-20T03:46:35.613Z,931.56
2017-08-20T03:47:03.770Z,931.58
2017-08-20T03:47:31.901Z,931.6
2017-08-20T03:48:00.006Z,931.6
2017-08-20T03:48:27.964Z,931.57
2017-08-20T03:48:55.798Z,931.62
2017-08-20T03:49:23.826Z,931.62
2017-08-20T03:49:51.733Z,931.59
2017-08-20T03:50:19.852Z,931.58
2017-08-20T03:50:47.982Z,931.6
2017-08-20T03:51:16.091Z,931.63
2017-08-20T03:51:44.221Z,931.63
2017-08-20T03:52:12.551Z,931.67
2017-08-20T03:52:40.846Z,931.64
2017-08-20T03:53:51.695Z,931.69
2017-08-20T03:54:19.842Z,931.64
2017-08-20T03:54:47.851Z,931.65
2017-08-20T03:55:16.029Z,931.63
2017-08-20T03:55:44.531Z,931.62
2017-08-20T03:56:12.654Z,931.61
2017-08-20T03:56:40.744Z,931.64
2017-08-20T03:57:08.828Z,931.63
2017-08-20T03:57:37.086Z,931.63
2017-08-20T03:58:05.399Z,931.62
2017-08-20T03:58:33.442Z,931.61
2017-08-20T03:59:01.501Z,931.73
2017-08-20T03:59:29.554Z,931.68
2017-08-20T03:59:57.546Z,931.64
2017-08-20T04:00:25.717Z,931.65
2017-08-20T04:00:53.921Z,931.64
2017-08-20T04:01:22.231Z,931.67
2017-08-20T04:01:50.278Z,931.73
2017-08-20T04:02:18.299Z,931.7
2017-08-20T04:02:46.369Z,931.68
2017-08-20T04:03:14.477Z,931.7
2017-08-20T04:03:42.561Z,931.68
2017-08-20T04:04:10.928Z,931.66
2017-08-20T04:04:39.245Z,931.69
2017-08-20T04:05:07.276Z,931.63
2017-08-20T04:05:35.398Z,931.58
2017-08-20T04:06:03.435Z,931.59
2017-08-20T04:06:31.557Z,931.59
2017-08-20T04:06:59.814Z,931.53
2017-08-20T04:07:27.955Z,931.55
2017-08-20T04:07:56.186Z,931.49
2017-08-20T04:08:24.172Z,931.5
2017-08-20T04:08:52.263Z,931.47
2017-08-20T04:09:20.386Z,931.49
2017-08-20T04:09:48.517Z,931.47
2017-08-20T04:10:16.551Z,931.41
2017-08-20T04:10:44.695Z,931.45
2017-08-20T04:11:12.825Z,931.42
2017-08-20T04:11:40.763Z,931.38
2017-08-20T04:12:08.892Z,931.43
2017-08-20T04:12:36.933Z,931.42
2017-08-20T04:13:04.975Z,931.39
2017-08-20T04:13:33.035Z,931.4
2017-08-20T04:14:01.165Z,931.37
2017-08-20T04:14:29.079Z,931.38
2017-08-20T04:14:57.216Z,931.37
2017-08-20T04:15:25.333Z,931.35
2017-08-20T04:15:53.540Z,931.43
2017-08-20T04:16:21.588Z,931.39
2017-08-20T04:16:49.753Z,931.41
2017-08-20T04:17:17.885Z,931.38
2017-08-20T04:17:45.981Z,931.38
2017-08-20T04:18:14.013Z,931.35
2017-08-20T04:18:42.054Z,931.35
2017-08-20T04:19:10.097Z,931.35
2017-08-20T04:19:38.233Z,931.38
2017-08-20T04:20:06.176Z,931.34
2017-08-20T04:20:34.206Z,931.34
2017-08-20T04:21:02.234Z,931.33
2017-08-20T04:21:30.361Z,931.33
2017-08-20T04:21:58.390Z,931.3
2017-08-20T04:22:26.511Z,931.33
2017-08-20T04:22:54.521Z,931.32
2017-08-20T04:23:22.637Z,931.34
2017-08-20T04:23:50.675Z,931.33
2017-08-20T04:24:18.798Z,931.32
2017-08-20T04:24:46.904Z,931.3
2017-08-20T04:25:15.041Z,931.27
2017-08-20T04:25:43.137Z,931.27
2017-08-20T04:26:11.272Z,931.21
2017-08-20T04:26:39.233Z,931.21
2017-08-20T04:27:07.237Z,931.16
2017-08-20T04:27:35.372Z,931.16
2017-08-20T04:28:03.292Z,931.17
2017-08-20T04:28:31.448Z,931.2
2017-08-20T04:28:59.473Z,931.18
2017-08-20T04:29:27.590Z,931.22
2017-08-20T04:29:55.622Z,931.2
2017-08-20T04:30:23.743Z,931.2
2017-08-20T04:30:51.752Z,931.19
2017-08-20T04:31:19.684Z,931.17
2017-08-20T04:31:47.899Z,931.13
2017-08-20T04:32:16.019Z,931.15
2017-08-20T04:32:44.051Z,931.16
2017-08-20T04:33:12.063Z,931.13
2017-08-20T04:33:40.184Z,931.08
2017-08-20T04:34:08.223Z,931.08
2017-08-20T04:34:36.352Z,931.07
2017-08-20T04:35:04.404Z,931.07
2017-08-20T04:35:32.527Z,931.08
2017-08-20T04:36:00.471Z,931.04
2017-08-20T04:36:28.527Z,931.07
2017-08-20T04:36:56.647Z,931.08
2017-08-20T04:37:24.664Z,931.09
2017-08-20T04:37:52.693Z,931.1
2017-08-20T04:38:20.900Z,931.11
2017-08-20T04:38:49.139Z,931.09
2017-08-20T04:39:17.148Z,931.08
2017-08-20T04:39:45.127Z,931.13
2017-08-20T04:40:13.399Z,931.11
2017-08-20T04:40:41.435Z,931.1
2017-08-20T04:41:09.802Z,931.1
2017-08-20T04:41:37.925Z,931.14
2017-08-20T04:42:05.960Z,931.06
2017-08-20T04:42:34.094Z,931.09
2017-08-20T04:43:02.152Z,931.06
2017-08-20T04:43:30.311Z,931.09
2017-08-20T04:43:58.236Z,931.1
2017-08-20T04:44:26.351Z,931.06
2017-08-20T04:44:54.402Z,931.07
2017-08-20T04:45:22.531Z,931.09
2017-08-20T04:45:50.752Z,931.1
2017-08-20T04:46:18.985Z,931.06
2017-08-20T04:46:47.112Z,931.09
2017-08-20T04:47:15.244Z,931.11
2017-08-20T04:47:43.242Z,931.13
2017-08-20T04:48:11.403Z,931.11
2017-08-20T04:48:39.526Z,931.12
2017-08-20T04:49:07.680Z,931.13
2017-08-20T04:49:36.195Z,931.11
2017-08-20T04:50:04.239Z,931.13
2017-08-20T04:50:32.367Z,931.1
2017-08-20T04:51:00.286Z,931.09
2017-08-20T04:51:28.394Z,931.02
2017-08-20T04:51:56.532Z,930.97
2017-08-20T04:52:24.487Z,931.02
2017-08-20T04:52:53.603Z,930.98
2017-08-20T04:53:22.038Z,930.95
2017-08-20T04:53:50.218Z,930.97
2017-08-20T04:54:18.242Z,930.96
2017-08-20T04:54:46.177Z,930.98
2017-08-20T04:55:14.301Z,930.95
2017-08-20T04:55:42.310Z,930.97
2017-08-20T04:56:10.254Z,930.98
2017-08-20T04:56:38.206Z,930.95
2017-08-20T04:57:06.344Z,930.97
2017-08-20T04:57:34.593Z,930.95
2017-08-20T04:58:02.631Z,930.99
2017-08-20T04:58:30.762Z,930.99
2017-08-20T04:58:58.889Z,930.96
2017-08-20T04:59:27.034Z,930.94
2017-08-20T04:59:55.046Z,930.93
2017-08-20T05:00:23.193Z,930.9
2017-08-20T05:00:51.365Z,930.9
2017-08-20T05:01:19.502Z,930.86
2017-08-20T05:01:47.633Z,930.86
2017-08-20T05:02:15.666Z,930.88
2017-08-20T05:02:43.810Z,930.84
2017-08-20T05:03:11.953Z,930.79
2017-08-20T05:03:40.078Z,930.79
2017-08-20T05:04:08.232Z,930.79
2017-08-20T05:04:36.339Z,930.7
2017-08-20T05:05:04.461Z,930.71
2017-08-20T05:05:32.589Z,930.68
2017-08-20T05:06:01.059Z,930.67
2017-08-20T05:06:29.180Z,930.72
2017-08-20T05:06:57.329Z,930.69
2017-08-20T05:07:25.455Z,930.67
2017-08-20T05:07:53.461Z,930.69
2017-08-20T05:08:21.627Z,930.71
2017-08-20T05:08:49.705Z,930.75
2017-08-20T05:09:17.641Z,930.8
2017-08-20T05:09:45.663Z,930.8
2017-08-20T05:10:13.726Z,930.83
2017-08-20T05:10:41.890Z,930.82
2017-08-20T05:11:10.059Z,930.82
2017-08-20T05:11:38.210Z,930.86
2017-08-20T05:12:06.182Z,930.87
2017-08-20T05:12:34.502Z,930.83
2017-08-20T05:13:02.641Z,930.85
2017-08-20T05:13:30.818Z,930.83
2017-08-20T05:13:58.838Z,930.83
2017-08-20T05:14:26.981Z,930.83
2017-08-20T05:14:55.016Z,930.83
2017-08-20T05:15:23.186Z,930.79
2017-08-20T05:15:51.383Z,930.8
2017-08-20T05:16:19.705Z,930.78
2017-08-20T05:16:47.831Z,930.77
2017-08-20T05:17:16.002Z,930.72
2017-08-20T05:17:44.166Z,930.83
2017-08-20T05:18:12.323Z,930.83
2017-08-20T05:18:40.383Z,930.81
2017-08-20T05:19:08.535Z,930.83
2017-08-20T05:19:36.588Z,930.83
2017-08-20T05:20:04.738Z,930.8
2017-08-20T05:20:32.978Z,930.77
2017-08-20T05:21:01.136Z,930.82
2017-08-20T05:21:29.214Z,930.83
2017-08-20T05:21:57.493Z,930.82
2017-08-20T05:22:25.765Z,930.82
2017-08-20T05:22:53.699Z,930.8
2017-08-20T05:23:21.732Z,930.78
2017-08-20T05:23:50.295Z,930.8
2017-08-20T05:24:18.440Z,930.79
2017-08-20T05:24:46.387Z,930.8
2017-08-20T05:25:14.517Z,930.81
2017-08-20T05:25:42.601Z,930.76
2017-08-20T05:26:10.801Z,930.77
2017-08-20T05:26:39.038Z,930.75
2017-08-20T05:27:07.545Z,930.72
2017-08-20T05:27:35.602Z,930.74
2017-08-20T05:28:03.644Z,930.72
2017-08-20T05:28:31.873Z,930.69
2017-08-20T05:28:59.838Z,930.7
2017-08-20T05:29:28.055Z,930.68
2017-08-20T05:29:56.634Z,930.66
2017-08-20T05:30:24.990Z,930.68
2017-08-20T05:30:52.902Z,930.63
2017-08-20T05:31:21.276Z,930.69
2017-08-20T05:31:49.387Z,930.62
2017-08-20T05:32:17.702Z,930.66
2017-08-20T05:32:45.923Z,930.68
2017-08-20T05:33:14.415Z,930.65
2017-08-20T05:33:42.667Z,930.67
2017-08-20T05:34:11.170Z,930.66
2017-08-20T05:34:39.520Z,930.63
2017-08-20T05:35:07.920Z,930.61
2017-08-20T05:35:37.158Z,930.58
2017-08-20T05:36:05.331Z,930.57
2017-08-20T05:36:34.072Z,930.52
2017-08-20T05:37:02.491Z,930.54
2017-08-20T05:37:30.727Z,930.54
2017-08-20T05:37:58.969Z,930.52
2017-08-20T05:38:26.899Z,930.53
2017-08-20T05:38:55.093Z,930.51
2017-08-20T05:39:23.319Z,930.56
2017-08-20T05:39:51.344Z,930.59
2017-08-20T05:40:19.413Z,930.56
2017-08-20T05:40:47.351Z,930.55
2017-08-20T05:41:15.475Z,930.62
2017-08-20T05:41:43.598Z,930.62
2017-08-20T05:42:11.733Z,930.61
2017-08-20T05:42:39.846Z,930.6
2017-08-20T05:43:08.165Z,930.64
2017-08-20T05:43:36.571Z,930.63
2017-08-20T05:44:04.572Z,930.61
2017-08-20T05:44:32.921Z,930.59
2017-08-20T05:45:01.237Z,930.62
2017-08-20T05:45:29.477Z,930.64
2017-08-20T05:45:57.905Z,930.61
2017-08-20T05:46:26.062Z,930.6
2017-08-20T05:46:54.465Z,930.65
2017-08-20T05:47:22.590Z,930.65
2017-08-20T05:47:50.615Z,930.61
2017-08-20T05:48:18.723Z,930.6
2017-08-20T05:48:47.139Z,930.58
2017-08-20T05:49:15.367Z,930.57
2017-08-20T05:49:43.499Z,930.58
2017-08-20T05:50:11.762Z,930.55
2017-08-20T05:50:39.941Z,930.49
2017-08-20T05:51:08.099Z,930.51
2017-08-20T05:51:36.342Z,930.5
2017-08-20T05:52:04.342Z,930.52
2017-08-20T05:52:32.486Z,930.5
2017-08-20T05:53:00.871Z,930.48
2017-08-20T05:53:28.925Z,930.51
2017-08-20T05:53:57.558Z,930.51
2017-08-20T05:54:25.836Z,930.49
2017-08-20T05:54:54.276Z,930.48
2017-08-20T05:55:22.600Z,930.45
2017-08-20T05:55:51.103Z,930.46
2017-08-20T05:56:19.326Z,930.44
2017-08-20T05:56:47.634Z,930.43
2017-08-20T05:57:15.984Z,930.45
2017-08-20T05:57:44.053Z,930.45
2017-08-20T05:58:12.443Z,930.44
2017-08-20T05:58:40.523Z,930.42
2017-08-20T05:59:08.702Z,930.44
2017-08-20T05:59:37.073Z,930.47
2017-08-20T06:00:05.294Z,930.42
2017-08-20T06:00:33.672Z,930.4
2017-08-20T06:01:01.709Z,930.38
2017-08-20T06:01:29.856Z,930.38